VOZ814 YSSY-YMML
Flight info
| Callsign | VOZ814 |
|---|---|
| Flight time | N/A |
| Altitude | 36000 |
| Route | WOL H65 LEECE Q29 ML |
| Aircraft | B737/M-SDE2E3FGHIRWXY/LB1 |
Departure
| Time | 2026-05-06 23:38 |
|---|---|
| Airport | Sydney Kingsford Smith International Airport (YSSY) |
Arrival
| Time | N/A |
|---|---|
| Airport | Melbourne Airport (YMML) |
| Time | Latitude | Longitude | Altitude | Speed | Heading |
|---|---|---|---|---|---|
| 2026-05-06 23:09 | -33.93556 | 151.17994 | 29 ft | 0 kts | 280° |
| 2026-05-06 23:22 | -33.93558 | 151.18014 | 29 ft | 4 kts | 271° |
| 2026-05-06 23:22 | -33.93555 | 151.18045 | 29 ft | 4 kts | 242° |
| 2026-05-06 23:22 | -33.93539 | 151.18065 | 29 ft | 3 kts | 191° |
| 2026-05-06 23:23 | -33.93532 | 151.18066 | 29 ft | 0 kts | 190° |
| 2026-05-06 23:25 | -33.93533 | 151.18066 | 29 ft | 0 kts | 190° |
| 2026-05-06 23:26 | -33.93571 | 151.18059 | 29 ft | 10 kts | 189° |
| 2026-05-06 23:26 | -33.93646 | 151.18051 | 29 ft | 12 kts | 178° |
| 2026-05-06 23:26 | -33.93732 | 151.18064 | 29 ft | 13 kts | 169° |
| 2026-05-06 23:26 | -33.93789 | 151.17994 | 29 ft | 13 kts | 253° |
| 2026-05-06 23:27 | -33.93812 | 151.17884 | 29 ft | 14 kts | 256° |
| 2026-05-06 23:27 | -33.93827 | 151.17816 | 29 ft | 15 kts | 253° |
| 2026-05-06 23:27 | -33.93830 | 151.17808 | 29 ft | 1 kts | 240° |
| 2026-05-06 23:27 | -33.93856 | 151.17785 | 29 ft | 8 kts | 202° |
| 2026-05-06 23:28 | -33.93933 | 151.17795 | 28 ft | 15 kts | 169° |
| 2026-05-06 23:28 | -33.94056 | 151.17824 | 28 ft | 22 kts | 167° |
| 2026-05-06 23:28 | -33.94226 | 151.17867 | 29 ft | 26 kts | 168° |
| 2026-05-06 23:28 | -33.94393 | 151.17910 | 29 ft | 22 kts | 166° |
| 2026-05-06 23:29 | -33.94502 | 151.17832 | 29 ft | 19 kts | 245° |
| 2026-05-06 23:29 | -33.94607 | 151.17816 | 27 ft | 16 kts | 169° |
| 2026-05-06 23:29 | -33.94714 | 151.17818 | 29 ft | 15 kts | 187° |
| 2026-05-06 23:29 | -33.94811 | 151.17864 | 29 ft | 15 kts | 161° |
| 2026-05-06 23:30 | -33.94909 | 151.17895 | 29 ft | 14 kts | 167° |
| 2026-05-06 23:30 | -33.95005 | 151.17910 | 29 ft | 14 kts | 168° |
| 2026-05-06 23:30 | -33.95092 | 151.17940 | 29 ft | 13 kts | 161° |
| 2026-05-06 23:30 | -33.95172 | 151.17987 | 29 ft | 13 kts | 135° |
| 2026-05-06 23:31 | -33.95177 | 151.18088 | 29 ft | 12 kts | 78° |
| 2026-05-06 23:31 | -33.95158 | 151.18188 | 29 ft | 12 kts | 76° |
| 2026-05-06 23:31 | -33.95137 | 151.18284 | 29 ft | 12 kts | 77° |
| 2026-05-06 23:31 | -33.95120 | 151.18379 | 29 ft | 11 kts | 82° |
| 2026-05-06 23:32 | -33.95116 | 151.18478 | 29 ft | 13 kts | 95° |
| 2026-05-06 23:32 | -33.95158 | 151.18585 | 29 ft | 16 kts | 131° |
| 2026-05-06 23:32 | -33.95260 | 151.18689 | 29 ft | 22 kts | 152° |
| 2026-05-06 23:32 | -33.95409 | 151.18741 | 29 ft | 22 kts | 167° |
| 2026-05-06 23:33 | -33.95556 | 151.18781 | 29 ft | 21 kts | 166° |
| 2026-05-06 23:33 | -33.95699 | 151.18821 | 29 ft | 21 kts | 169° |
| 2026-05-06 23:33 | -33.95839 | 151.18853 | 29 ft | 20 kts | 167° |
| 2026-05-06 23:33 | -33.95972 | 151.18890 | 29 ft | 20 kts | 168° |
| 2026-05-06 23:34 | -33.96103 | 151.18924 | 29 ft | 19 kts | 167° |
| 2026-05-06 23:34 | -33.96229 | 151.18955 | 29 ft | 18 kts | 166° |
| 2026-05-06 23:34 | -33.96354 | 151.18989 | 29 ft | 19 kts | 167° |
| 2026-05-06 23:34 | -33.96508 | 151.19031 | 29 ft | 26 kts | 168° |
| 2026-05-06 23:35 | -33.96698 | 151.19075 | 29 ft | 26 kts | 176° |
| 2026-05-06 23:35 | -33.96868 | 151.19081 | 29 ft | 24 kts | 172° |
| 2026-05-06 23:35 | -33.97026 | 151.19118 | 29 ft | 20 kts | 168° |
| 2026-05-06 23:35 | -33.97099 | 151.19145 | 29 ft | 9 kts | 150° |
| 2026-05-06 23:36 | -33.97121 | 151.19222 | 28 ft | 14 kts | 82° |
| 2026-05-06 23:36 | -33.97083 | 151.19355 | 28 ft | 16 kts | 45° |
| 2026-05-06 23:36 | -33.97009 | 151.19359 | 25 ft | 0 kts | 347° |
| 2026-05-06 23:38 | -33.97003 | 151.19357 | 27 ft | 9 kts | 347° |
| 2026-05-06 23:38 | -33.96567 | 151.19243 | 23 ft | 117 kts | 348° |
| 2026-05-06 23:38 | -33.95473 | 151.18955 | 117 ft | 198 kts | 348° |
| 2026-05-06 23:38 | -33.93990 | 151.18821 | 1069 ft | 228 kts | 7° |
| 2026-05-06 23:39 | -33.92449 | 151.19731 | 1797 ft | 283 kts | 38° |
| 2026-05-06 23:39 | -33.91035 | 151.21899 | 920 ft | 385 kts | 67° |
| 2026-05-06 23:39 | -33.90720 | 151.25035 | 2756 ft | 372 kts | 96° |
| 2026-05-06 23:39 | -33.90999 | 151.28098 | 3864 ft | 360 kts | 102° |
| 2026-05-06 23:40 | -33.91846 | 151.30923 | 4676 ft | 356 kts | 118° |
| 2026-05-06 23:40 | -33.92760 | 151.33660 | 5853 ft | 350 kts | 108° |
| 2026-05-06 23:40 | -33.93248 | 151.36490 | 7087 ft | 342 kts | 97° |
| 2026-05-06 23:40 | -33.93400 | 151.39311 | 8301 ft | 334 kts | 88° |
| 2026-05-06 23:41 | -33.93355 | 151.42077 | 9566 ft | 326 kts | 85° |
| 2026-05-06 23:41 | -33.93268 | 151.44783 | 10718 ft | 322 kts | 84° |
| 2026-05-06 23:41 | -33.93181 | 151.47498 | 11580 ft | 327 kts | 84° |
| 2026-05-06 23:41 | -33.93309 | 151.50270 | 12322 ft | 342 kts | 103° |
| 2026-05-06 23:42 | -33.94291 | 151.53054 | 11861 ft | 388 kts | 123° |
| 2026-05-06 23:42 | -33.96172 | 151.55701 | 9216 ft | 457 kts | 141° |